Heino — V2CO9 — position and weather

sailwx.info

Track history (hours):
 
Tides and Currents Weather Stations Pressure Air Temp Water Temp Dewpoint Dewpoint Depression Visibility Wind Speed Wind Dir Waves Ship Positions

Heino

Last reported at 2018-Feb-22 20:31 UTC. Time now 2018-Feb-22 20:56 UTC.
Position N 53°30' E 009°57'.

Length 138 m; draft 5.5 m.

Type: Cargo ship. MMSI: 305063000.

Date/timePositionNaut miles runAvg speedWind from/ knotsBaromVisibWave heightAir tempDewpointWater temp
2018-Feb-22 20:31N 53°30' E 009°57'3 5.9
2018-Feb-22 20:00N 53°32' E 009°54'4 7.8
2018-Feb-22 19:31N 53°33' E 009°48'611.3
2018-Feb-22 19:00N 53°34' E 009°38'612.5
2018-Feb-22 18:31N 53°39' E 009°31'612.2
2018-Feb-22 18:00N 53°44' E 009°26'714.3
2018-Feb-22 17:30N 53°51' E 009°20'714.1
2018-Feb-22 17:00N 53°53' E 009°09'714.1
2018-Feb-22 16:30N 53°51' E 008°57'714.6
2018-Feb-22 16:00N 53°51' E 008°45'815.0
2018-Feb-22 15:30N 53°57' E 008°36'714.8
2018-Feb-22 15:00N 53°59' E 008°24'713.1
2018-Feb-22 14:30N 53°59' E 008°13'714.0
2018-Feb-22 14:00N 53°58' E 008°01'713.3
2018-Feb-22 13:28N 53°53' E 007°53'510.9
2018-Feb-22 13:00N 53°51' E 008°01'510.5
2018-Feb-22 12:31N 53°48' E 008°08'5 9.5
2018-Feb-22 12:00N 53°44' E 008°14'5 9.9
2018-Feb-22 11:30N 53°42' E 008°21'5 9.9
2018-Feb-22 11:00N 53°38' E 008°27'5 9.6
2018-Feb-22 10:30N 53°34' E 008°32'1 2.4
2018-Feb-22 10:00N 53°34' E 008°33'0 0.0
2018-Feb-22 09:30N 53°34' E 008°33'0 0.0
2018-Feb-22 09:00N 53°34' E 008°33'0 0.0
2018-Feb-22 08:30N 53°34' E 008°33'0 0.0
2018-Feb-22 08:00N 53°34' E 008°33'0 0.0
2018-Feb-22 07:30N 53°34' E 008°33'0 0.0
2018-Feb-22 07:00N 53°34' E 008°33'0 0.0
2018-Feb-22 06:30N 53°34' E 008°33'0 0.0
2018-Feb-22 06:00N 53°34' E 008°33'0 0.0
2018-Feb-22 05:30N 53°34' E 008°33'0 0.0
2018-Feb-22 05:00N 53°34' E 008°33'0 0.0
2018-Feb-22 04:30N 53°34' E 008°33'0 0.0
2018-Feb-22 04:00N 53°34' E 008°33'0 0.0
2018-Feb-22 03:30N 53°34' E 008°33'0 0.0
2018-Feb-22 02:57N 53°34' E 008°33'0 0.0
2018-Feb-22 02:30N 53°34' E 008°33'0 0.0
2018-Feb-22 02:00N 53°33' E 008°33'0 0.0
2018-Feb-22 01:30N 53°34' E 008°33'0 0.0
2018-Feb-22 01:00N 53°34' E 008°33'0 0.0
2018-Feb-22 00:30N 53°33' E 008°33'0 0.0
2018-Feb-22 00:00N 53°34' E 008°33'0 0.0
2018-Feb-21 23:30N 53°34' E 008°33'0 0.0
2018-Feb-21 23:00N 53°34' E 008°33'0 0.0
2018-Feb-21 22:30N 53°34' E 008°33'1 2.8
2018-Feb-21 22:00N 53°35' E 008°32'2 3.3
2018-Feb-21 21:28N 53°36' E 008°31'0 0.0
2018-Feb-21 20:58N 53°36' E 008°31'0 0.0
2018-Feb-21 20:28N 53°36' E 008°31'0 0.0
2018-Feb-21 19:55N 53°36' E 008°31'0 0.0
2018-Feb-21 19:28N 53°36' E 008°31'0 0.0
2018-Feb-21 18:58N 53°36' E 008°31'0 0.0
2018-Feb-21 18:28N 53°36' E 008°31'0 0.0
2018-Feb-21 17:58N 53°36' E 008°31'0 0.0
2018-Feb-21 17:25N 53°36' E 008°31'0 0.0
2018-Feb-21 16:58N 53°36' E 008°31'0 0.0
2018-Feb-21 16:25N 53°36' E 008°31'0 0.0
2018-Feb-21 15:55N 53°36' E 008°31'0 0.0
2018-Feb-21 15:28N 53°36' E 008°31'0 0.0
2018-Feb-21 14:58N 53°36' E 008°31'0 0.0
2018-Feb-21 14:28N 53°36' E 008°31'0 0.0
2018-Feb-21 13:58N 53°36' E 008°31'0 0.0
2018-Feb-21 13:28N 53°36' E 008°31'0 0.0
2018-Feb-21 12:58N 53°36' E 008°31'0 0.0
2018-Feb-21 12:25N 53°36' E 008°31'0 0.0
2018-Feb-21 12:00N 53°36' E 008°31'0 0.0
2018-Feb-21 11:30N 53°36' E 008°31'0 0.0
2018-Feb-21 10:57N 53°36' E 008°31'0 0.0
2018-Feb-21 10:30N 53°36' E 008°31'0 0.0
2018-Feb-21 10:00N 53°36' E 008°31'0 0.0
2018-Feb-21 09:30N 53°36' E 008°31'0 0.0
2018-Feb-21 09:00N 53°36' E 008°31'0 0.0
2018-Feb-21 08:30N 53°36' E 008°31'0 0.0
2018-Feb-21 08:00N 53°36' E 008°31'0 0.0
2018-Feb-21 07:30N 53°36' E 008°31'0 0.0
2018-Feb-21 07:00N 53°36' E 008°31'0 0.0
2018-Feb-21 06:30N 53°36' E 008°31'0 0.0
2018-Feb-21 06:00N 53°36' E 008°31'0 0.0
2018-Feb-21 05:30N 53°36' E 008°31'0 0.0
2018-Feb-21 05:00N 53°36' E 008°31'0 0.0
2018-Feb-21 04:30N 53°36' E 008°31'0 0.0
2018-Feb-21 04:00N 53°36' E 008°31'0 0.0
2018-Feb-21 03:30N 53°36' E 008°31'0 0.0
2018-Feb-21 03:00N 53°36' E 008°31'0 0.0
2018-Feb-21 02:30N 53°36' E 008°31'0 0.0
2018-Feb-21 02:00N 53°36' E 008°31'0 0.0
2018-Feb-21 01:30N 53°36' E 008°31'0 0.0
2018-Feb-21 01:00N 53°36' E 008°31'0 0.0
2018-Feb-21 00:30N 53°36' E 008°31'0 0.0
2018-Feb-21 00:00N 53°36' E 008°31'0 0.0
2018-Feb-20 23:30N 53°36' E 008°31'0 0.0
2018-Feb-20 23:00N 53°36' E 008°31'0 0.0
2018-Feb-20 22:30N 53°36' E 008°31'0 0.0
2018-Feb-20 22:00N 53°36' E 008°31'0 0.0
2018-Feb-20 21:30N 53°36' E 008°31'0 0.0
2018-Feb-20 21:00N 53°36' E 008°31'0 0.0
2018-Feb-20 20:29N 53°36' E 008°31'0 0.0
2018-Feb-20 19:59N 53°36' E 008°31'0 0.0
2018-Feb-20 19:28N 53°36' E 008°31'0 0.0
2018-Feb-20 18:58N 53°36' E 008°31'0 0.0
2018-Feb-20 18:28N 53°36' E 008°31'0 0.0
2018-Feb-20 17:58N 53°36' E 008°31'0 0.0
2018-Feb-20 17:25N 53°36' E 008°31'0 0.0
2018-Feb-20 16:58N 53°36' E 008°31'0 0.0
2018-Feb-20 16:28N 53°36' E 008°31'0 0.0
2018-Feb-20 15:58N 53°36' E 008°31'0 0.0
2018-Feb-20 15:28N 53°36' E 008°31'0 0.0
2018-Feb-20 14:58N 53°36' E 008°31'0 0.0
2018-Feb-20 14:28N 53°36' E 008°31'0 0.0
2018-Feb-20 13:58N 53°36' E 008°31'0 0.1
2018-Feb-20 13:28N 53°36' E 008°31'0 0.1
2018-Feb-20 12:58N 53°36' E 008°31'0 0.0
2018-Feb-20 12:25N 53°36' E 008°31'0 0.0
2018-Feb-20 12:01N 53°36' E 008°31'0 0.0
2018-Feb-20 11:30N 53°36' E 008°31'0 0.0
2018-Feb-20 11:00N 53°36' E 008°31'0 0.0
2018-Feb-20 10:30N 53°36' E 008°31'0 0.0
2018-Feb-20 10:00N 53°36' E 008°31'0 0.0
2018-Feb-20 09:30N 53°36' E 008°31'0 0.0
2018-Feb-20 09:00N 53°36' E 008°31'0 0.0
2018-Feb-20 08:30N 53°36' E 008°31'0 0.0
2018-Feb-20 08:00N 53°36' E 008°31'0 0.0
2018-Feb-20 07:30N 53°36' E 008°31'0 0.0
2018-Feb-20 07:00N 53°36' E 008°31'0 0.0
2018-Feb-20 06:30N 53°36' E 008°31'0 0.0
2018-Feb-20 06:00N 53°36' E 008°31'0 0.0
2018-Feb-20 05:30N 53°36' E 008°31'0 0.0
2018-Feb-20 05:00N 53°36' E 008°31'0 0.0
2018-Feb-20 04:30N 53°36' E 008°31'0 0.0
2018-Feb-20 04:00N 53°36' E 008°31'0 0.1
2018-Feb-20 03:30N 53°36' E 008°31'0 0.1
2018-Feb-20 03:00N 53°36' E 008°31'0 0.0
2018-Feb-20 02:30N 53°36' E 008°31'0 0.0
2018-Feb-20 01:57N 53°36' E 008°31'0 0.0
2018-Feb-20 01:30N 53°36' E 008°31'0 0.0
2018-Feb-20 01:00N 53°36' E 008°31'0 0.0
2018-Feb-20 00:27N 53°36' E 008°31'0 0.0
2018-Feb-20 00:00N 53°36' E 008°31'0 0.0
2018-Feb-19 23:30N 53°36' E 008°31'0 0.0
2018-Feb-19 23:00N 53°36' E 008°31'0 0.0
2018-Feb-19 22:30N 53°36' E 008°31'0 0.0
2018-Feb-19 22:00N 53°36' E 008°31'0 0.0
2018-Feb-19 21:24N 53°36' E 008°31'0 0.0
2018-Feb-19 20:56N 53°36' E 008°31'0 0.0
2018-Feb-19 20:29N 53°36' E 008°31'0 0.0
2018-Feb-19 19:59N 53°36' E 008°31'0 0.0
2018-Feb-19 19:29N 53°36' E 008°31'0 0.0
2018-Feb-19 18:59N 53°36' E 008°31'0 0.0
2018-Feb-19 18:29N 53°36' E 008°31'0 0.0
2018-Feb-19 17:59N 53°36' E 008°31'0 0.0
2018-Feb-19 17:29N 53°36' E 008°31'0 0.0
2018-Feb-19 16:59N 53°36' E 008°31'0 0.0
2018-Feb-19 16:29N 53°36' E 008°31'0 0.0
2018-Feb-19 15:59N 53°36' E 008°31'0 0.0
2018-Feb-19 15:29N 53°36' E 008°31'0 0.0
2018-Feb-19 14:59N 53°36' E 008°31'0 0.0
2018-Feb-19 14:29N 53°36' E 008°31'0 0.0
2018-Feb-19 13:59N 53°36' E 008°31'0 0.0
2018-Feb-19 13:29N 53°36' E 008°31'0 0.0
2018-Feb-19 12:59N 53°36' E 008°31'0 0.0
2018-Feb-19 12:29N 53°36' E 008°31'0 0.0
2018-Feb-19 11:59N 53°36' E 008°31'0 0.0
2018-Feb-19 11:29N 53°36' E 008°31'0 0.0
2018-Feb-19 10:59N 53°36' E 008°31'0 0.0
2018-Feb-19 10:29N 53°36' E 008°31'0 0.0
2018-Feb-19 09:59N 53°36' E 008°31'0 0.0
2018-Feb-19 09:29N 53°36' E 008°31'0 0.0
2018-Feb-19 08:56N 53°36' E 008°31'0 0.0
2018-Feb-19 08:17N 53°36' E 008°31'0 0.1
2018-Feb-19 07:59N 53°36' E 008°31'0 0.0
2018-Feb-19 07:29N 53°36' E 008°31'0 0.0
2018-Feb-19 06:59N 53°36' E 008°31'0 0.0
2018-Feb-19 06:29N 53°36' E 008°31'0 0.0
2018-Feb-19 05:59N 53°36' E 008°31'0 0.0
2018-Feb-19 05:28N 53°36' E 008°31'0 0.0
2018-Feb-19 04:55N 53°36' E 008°31'0 0.0
2018-Feb-19 04:28N 53°36' E 008°31'0 0.0
2018-Feb-19 03:58N 53°36' E 008°31'0 0.0
2018-Feb-19 03:28N 53°36' E 008°31'0 0.0
2018-Feb-19 02:58N 53°36' E 008°31'0 0.0
2018-Feb-19 02:28N 53°36' E 008°31'0 0.0
2018-Feb-19 01:58N 53°36' E 008°31'0 0.0
2018-Feb-19 01:25N 53°36' E 008°31'0 0.0
2018-Feb-19 00:58N 53°36' E 008°31'0 0.0
2018-Feb-19 00:28N 53°36' E 008°31'0 0.0
2018-Feb-18 23:58N 53°36' E 008°31'0 0.0
2018-Feb-18 23:28N 53°36' E 008°31'0 0.0
2018-Feb-18 22:58N 53°36' E 008°31'0 0.0
2018-Feb-18 22:28N 53°36' E 008°31'0 0.0
2018-Feb-18 21:58N 53°36' E 008°31'0 0.0
2018-Feb-18 21:28N 53°36' E 008°31'0 0.0
2018-Feb-18 20:58N 53°36' E 008°31'0 0.0
2018-Feb-18 20:28N 53°36' E 008°31'0 0.0
2018-Feb-18 19:58N 53°36' E 008°31'0 0.0
2018-Feb-18 19:25N 53°36' E 008°31'0 0.0
2018-Feb-18 18:55N 53°36' E 008°31'0 0.0
2018-Feb-18 18:28N 53°36' E 008°31'0 0.0
2018-Feb-18 17:58N 53°36' E 008°31'0 0.0
2018-Feb-18 17:28N 53°36' E 008°31'0 0.0
2018-Feb-18 16:58N 53°36' E 008°31'0 0.0
2018-Feb-18 16:28N 53°36' E 008°31'0 0.0
2018-Feb-18 15:58N 53°36' E 008°31'0 0.0
2018-Feb-18 15:28N 53°36' E 008°31'0 0.0
2018-Feb-18 15:01N 53°36' E 008°31'0 0.0
2018-Feb-18 14:27N 53°36' E 008°31'0 0.0
2018-Feb-18 14:00N 53°36' E 008°31'0 0.0
2018-Feb-18 13:30N 53°36' E 008°31'0 0.0
2018-Feb-18 13:00N 53°36' E 008°31'0 0.0
2018-Feb-18 12:30N 53°36' E 008°31'0 0.0
2018-Feb-18 12:00N 53°36' E 008°31'0 0.0
2018-Feb-18 11:30N 53°36' E 008°31'0 0.0
2018-Feb-18 11:00N 53°36' E 008°31'0 0.0
2018-Feb-18 10:30N 53°36' E 008°31'0 0.0
2018-Feb-18 10:00N 53°36' E 008°31'0 0.0
2018-Feb-18 09:24N 53°36' E 008°31'0 0.1
2018-Feb-18 09:00N 53°36' E 008°31'0 0.1
2018-Feb-18 08:24N 53°36' E 008°31'0 0.0
2018-Feb-18 08:00N 53°36' E 008°31'0 0.0
2018-Feb-18 07:30N 53°36' E 008°31'0 0.0
2018-Feb-18 07:00N 53°36' E 008°31'0 0.0
2018-Feb-18 06:30N 53°36' E 008°31'0 0.0
2018-Feb-18 06:00N 53°36' E 008°31'0 0.0
2018-Feb-18 05:30N 53°36' E 008°31'0 0.0
2018-Feb-18 05:00N 53°36' E 008°31'0 0.0
2018-Feb-18 04:30N 53°36' E 008°31'0 0.0
2018-Feb-18 04:00N 53°36' E 008°31'0 0.0
2018-Feb-18 03:30N 53°36' E 008°31'0 0.0
2018-Feb-18 03:00N 53°36' E 008°31'0 0.0
2018-Feb-18 02:27N 53°36' E 008°31'0 0.0
2018-Feb-18 02:00N 53°36' E 008°31'0 0.0
2018-Feb-18 01:30N 53°36' E 008°31'0 0.0
2018-Feb-18 01:00N 53°36' E 008°31'0 0.0
2018-Feb-18 00:30N 53°36' E 008°31'0 0.0
2018-Feb-18 00:00N 53°36' E 008°31'0 0.0
2018-Feb-17 23:29N 53°36' E 008°31'0 0.1
2018-Feb-17 22:56N 53°36' E 008°31'0 0.1
2018-Feb-17 22:29N 53°36' E 008°31'0 0.0
2018-Feb-17 21:56N 53°36' E 008°31'0 0.0
2018-Feb-17 21:26N 53°36' E 008°31'0 0.0
2018-Feb-17 20:59N 53°36' E 008°31'0 0.0
2018-Feb-17 20:29N 53°36' E 008°31'0 0.0
2018-Feb-17 19:59N 53°36' E 008°31'0 0.0
2018-Feb-17 19:29N 53°36' E 008°31'0 0.0
2018-Feb-17 18:59N 53°36' E 008°31'0 0.0
2018-Feb-17 18:29N 53°36' E 008°31'0 0.0
2018-Feb-17 17:59N 53°36' E 008°31'0 0.0
2018-Feb-17 17:29N 53°36' E 008°31'0 0.0
2018-Feb-17 16:59N 53°36' E 008°31'0 0.0
2018-Feb-17 16:29N 53°36' E 008°31'0 0.0
2018-Feb-17 15:59N 53°36' E 008°31'0 0.0
2018-Feb-17 15:29N 53°36' E 008°31'0 0.0
2018-Feb-17 14:59N 53°36' E 008°31'0 0.0
2018-Feb-17 14:29N 53°36' E 008°31'0 0.0
2018-Feb-17 13:59N 53°36' E 008°31'0 0.0
2018-Feb-17 13:29N 53°36' E 008°31'0 0.0
2018-Feb-17 12:59N 53°36' E 008°31'0 0.0
2018-Feb-17 12:29N 53°36' E 008°31'0 0.0
2018-Feb-17 11:59N 53°36' E 008°31'0 0.0
2018-Feb-17 11:29N 53°36' E 008°31'0 0.0
2018-Feb-17 10:59N 53°36' E 008°31'0 0.0
2018-Feb-17 10:26N 53°36' E 008°31'0 0.0
2018-Feb-17 09:56N 53°36' E 008°31'0 0.0
2018-Feb-17 09:29N 53°36' E 008°31'0 0.0
2018-Feb-17 08:59N 53°36' E 008°31'0 0.0
2018-Feb-17 08:29N 53°36' E 008°31'0 0.0
2018-Feb-17 07:58N 53°36' E 008°31'0 0.0
2018-Feb-17 07:29N 53°36' E 008°31'0 0.0
2018-Feb-17 06:58N 53°36' E 008°31'0 0.0
2018-Feb-17 06:25N 53°36' E 008°31'0 0.0
2018-Feb-17 05:58N 53°36' E 008°31'0 0.0
2018-Feb-17 05:28N 53°36' E 008°31'0 0.1
2018-Feb-17 05:00N 53°36' E 008°30'1 2.9
2018-Feb-17 04:30N 53°37' E 008°29'510.3
2018-Feb-17 04:00N 53°40' E 008°22'510.5
2018-Feb-17 03:30N 53°44' E 008°15'510.3
2018-Feb-17 03:00N 53°47' E 008°09'138 7.4
2018-Feb-16 08:15N 53°05' E 004°28'413.6
2018-Feb-16 07:59N 53°02' E 004°25'713.5
2018-Feb-16 07:28N 52°56' E 004°19'613.6
2018-Feb-16 07:00N 52°51' E 004°14'10115.0
2018-Feb-16 00:16N 51°35' E 002°25'415.4
2018-Feb-16 00:00N 51°32' E 002°21'714.9
2018-Feb-15 23:30N 51°26' E 002°15'714.5
2018-Feb-15 23:00N 51°19' E 002°09'714.4
2018-Feb-15 22:30N 51°14' E 002°02'714.1
2018-Feb-15 22:00N 51°10' E 001°52'612.8
2018-Feb-15 21:30N 51°06' E 001°44'612.2
2018-Feb-15 21:00N 51°01' E 001°38'611.5
2018-Feb-15 20:30N 50°57' E 001°31'510.7
2018-Feb-15 20:00N 50°53' E 001°26'5911.4
2018-Feb-15 14:46N 50°20' E 000°08'312.5
2018-Feb-15 14:30N 50°19' E 000°03'612.6
2018-Feb-15 14:00N 50°17' W 000°06'612.6
2018-Feb-15 13:30N 50°16' W 000°16'1412.6
2018-Feb-15 12:26N 50°12' W 000°36'2213.7
2018-Feb-15 10:52N 50°05' W 001°08'615.1
2018-Feb-15 10:29N 50°04' W 001°17'815.7
2018-Feb-15 10:00N 50°02' W 001°28'816.4
2018-Feb-15 09:31N 49°60' W 001°40'917.0
2018-Feb-15 09:00N 49°58' W 001°53'917.4
2018-Feb-15 08:30N 49°55' W 002°06'3016.8
2018-Feb-15 06:43N 49°48' W 002°51'1515.5
2018-Feb-15 05:45N 49°48' W 003°14'2015.3
2018-Feb-15 04:26N 49°49' W 003°45'1614.9
2018-Feb-15 03:22N 49°51' W 004°10'1014.4
2018-Feb-15 02:39N 49°53' W 004°26'214.2
2018-Feb-15 02:29N 49°53' W 004°29'1313.9
2018-Feb-15 01:33N 49°53' W 004°49'713.7
2018-Feb-15 01:03N 49°53' W 004°60'113.6
2018-Feb-15 01:00N 49°53' W 005°01'713.4
2018-Feb-15 00:29N 49°54' W 005°12'1012.9
2018-Feb-14 23:43N 49°55' W 005°27'412.9
2018-Feb-14 23:24N 49°55' W 005°33'1511.9
2018-Feb-14 22:08N 49°55' W 005°57'212.9
2018-Feb-14 21:59N 49°55' W 005°60'1012.6
2018-Feb-14 21:10N 50°06' W 006°01'1013.2
2018-Feb-14 20:23N 50°16' W 006°02'512.3
2018-Feb-14 20:01N 50°21' W 006°03'813.0
2018-Feb-14 19:25N 50°25' W 006°13'11112.2
2018-Feb-14 10:22N 51°04' W 008°56'410.2
2018-Feb-14 10:00N 51°06' W 009°02'5 9.9
2018-Feb-14 09:30N 51°08' W 009°09'4 8.7
2018-Feb-14 09:00N 51°09' W 009°15'4 8.1
2018-Feb-14 08:30N 51°11' W 009°21'4 7.8
2018-Feb-14 08:00N 51°12' W 009°27'4 7.9
2018-Feb-14 07:30N 51°13' W 009°33'4 7.9
2018-Feb-14 07:00N 51°15' W 009°39'4 7.5
2018-Feb-14 06:30N 51°16' W 009°45'3 7.0
2018-Feb-14 06:00N 51°18' W 009°50'3 6.5
2018-Feb-14 05:30N 51°20' W 009°54'3 6.0
2018-Feb-14 05:00N 51°22' W 009°57'3 5.4
2018-Feb-14 04:30N 51°24' W 010°01'3 5.5
2018-Feb-14 04:00N 51°25' W 010°04'3 5.2
2018-Feb-14 03:30N 51°27' W 010°07'3 5.6
2018-Feb-14 03:00N 51°29' W 010°11'4 7.2
2018-Feb-14 02:30N 51°31' W 010°15'4 7.2
2018-Feb-14 01:54N 51°34' W 010°21'4 7.2
2018-Feb-14 01:23N 51°37' W 010°24'3 7.7
2018-Feb-14 01:00N 51°39' W 010°27'4 7.3
2018-Feb-14 00:29N 51°42' W 010°31'5 7.4
2018-Feb-13 23:52N 51°46' W 010°35'4 7.5
2018-Feb-13 23:22N 51°49' W 010°37'19 8.3
2018-Feb-13 21:04N 52°07' W 010°48'110.0
2018-Feb-13 21:00N 52°08' W 010°48'36 2.7
2018-Feb-13 07:55N 52°16' W 009°52'0 0.0
2018-Feb-13 07:07N 52°16' W 009°52'0 0.0
2018-Feb-13 06:43N 52°16' W 009°52'0 0.0
2018-Feb-13 04:43N 52°16' W 009°52'0 0.0
2018-Feb-13 04:25N 52°16' W 009°52'0 0.0
2018-Feb-13 03:43N 52°16' W 009°52'0 0.0
2018-Feb-13 02:43N 52°16' W 009°52'0 0.0
2018-Feb-13 02:19N 52°16' W 009°52'0 0.0
2018-Feb-13 01:37N 52°16' W 009°52'0 0.0
2018-Feb-13 01:25N 52°16' W 009°52'0 0.0
2018-Feb-13 00:55N 52°16' W 009°52'  
Track history (hours):
 
Tides and Currents Weather Stations Pressure Air Temp Water Temp Dewpoint Dewpoint Depression Visibility Wind Speed Wind Dir Waves Ship Positions

Heino

Last reported at 2018-Feb-22 20:31 UTC. Time now 2018-Feb-22 20:56 UTC.
Position N 53°30' E 009°57'.

Length 138 m; draft 5.5 m.

Type: Cargo ship. MMSI: 305063000.

Date/timePositionNaut miles runAvg speedWind from/ knotsBaromVisibWave heightAir tempDewpointWater temp
2018-Feb-22 20:31N 53°30' E 009°57'3 5.9
2018-Feb-22 20:00N 53°32' E 009°54'4 7.8
2018-Feb-22 19:31N 53°33' E 009°48'611.3
2018-Feb-22 19:00N 53°34' E 009°38'612.5
2018-Feb-22 18:31N 53°39' E 009°31'612.2
2018-Feb-22 18:00N 53°44' E 009°26'714.3
2018-Feb-22 17:30N 53°51' E 009°20'714.1
2018-Feb-22 17:00N 53°53' E 009°09'714.1
2018-Feb-22 16:30N 53°51' E 008°57'714.6
2018-Feb-22 16:00N 53°51' E 008°45'815.0
2018-Feb-22 15:30N 53°57' E 008°36'714.8
2018-Feb-22 15:00N 53°59' E 008°24'713.1
2018-Feb-22 14:30N 53°59' E 008°13'714.0
2018-Feb-22 14:00N 53°58' E 008°01'713.3
2018-Feb-22 13:28N 53°53' E 007°53'510.9
2018-Feb-22 13:00N 53°51' E 008°01'510.5
2018-Feb-22 12:31N 53°48' E 008°08'5 9.5
2018-Feb-22 12:00N 53°44' E 008°14'5 9.9
2018-Feb-22 11:30N 53°42' E 008°21'5 9.9
2018-Feb-22 11:00N 53°38' E 008°27'5 9.6
2018-Feb-22 10:30N 53°34' E 008°32'1 2.4
2018-Feb-22 10:00N 53°34' E 008°33'0 0.0
2018-Feb-22 09:30N 53°34' E 008°33'0 0.0
2018-Feb-22 09:00N 53°34' E 008°33'0 0.0
2018-Feb-22 08:30N 53°34' E 008°33'0 0.0
2018-Feb-22 08:00N 53°34' E 008°33'0 0.0
2018-Feb-22 07:30N 53°34' E 008°33'0 0.0
2018-Feb-22 07:00N 53°34' E 008°33'0 0.0
2018-Feb-22 06:30N 53°34' E 008°33'0 0.0
2018-Feb-22 06:00N 53°34' E 008°33'0 0.0
2018-Feb-22 05:30N 53°34' E 008°33'0 0.0
2018-Feb-22 05:00N 53°34' E 008°33'0 0.0
2018-Feb-22 04:30N 53°34' E 008°33'0 0.0
2018-Feb-22 04:00N 53°34' E 008°33'0 0.0
2018-Feb-22 03:30N 53°34' E 008°33'0 0.0
2018-Feb-22 02:57N 53°34' E 008°33'0 0.0
2018-Feb-22 02:30N 53°34' E 008°33'0 0.0
2018-Feb-22 02:00N 53°33' E 008°33'0 0.0
2018-Feb-22 01:30N 53°34' E 008°33'0 0.0
2018-Feb-22 01:00N 53°34' E 008°33'0 0.0
2018-Feb-22 00:30N 53°33' E 008°33'0 0.0
2018-Feb-22 00:00N 53°34' E 008°33'0 0.0
2018-Feb-21 23:30N 53°34' E 008°33'0 0.0
2018-Feb-21 23:00N 53°34' E 008°33'0 0.0
2018-Feb-21 22:30N 53°34' E 008°33'1 2.8
2018-Feb-21 22:00N 53°35' E 008°32'2 3.3
2018-Feb-21 21:28N 53°36' E 008°31'0 0.0
2018-Feb-21 20:58N 53°36' E 008°31'0 0.0
2018-Feb-21 20:28N 53°36' E 008°31'0 0.0
2018-Feb-21 19:55N 53°36' E 008°31'0 0.0
2018-Feb-21 19:28N 53°36' E 008°31'0 0.0
2018-Feb-21 18:58N 53°36' E 008°31'0 0.0
2018-Feb-21 18:28N 53°36' E 008°31'0 0.0
2018-Feb-21 17:58N 53°36' E 008°31'0 0.0
2018-Feb-21 17:25N 53°36' E 008°31'0 0.0
2018-Feb-21 16:58N 53°36' E 008°31'0 0.0
2018-Feb-21 16:25N 53°36' E 008°31'0 0.0
2018-Feb-21 15:55N 53°36' E 008°31'0 0.0
2018-Feb-21 15:28N 53°36' E 008°31'0 0.0
2018-Feb-21 14:58N 53°36' E 008°31'0 0.0
2018-Feb-21 14:28N 53°36' E 008°31'0 0.0
2018-Feb-21 13:58N 53°36' E 008°31'0 0.0
2018-Feb-21 13:28N 53°36' E 008°31'0 0.0
2018-Feb-21 12:58N 53°36' E 008°31'0 0.0
2018-Feb-21 12:25N 53°36' E 008°31'0 0.0
2018-Feb-21 12:00N 53°36' E 008°31'0 0.0
2018-Feb-21 11:30N 53°36' E 008°31'0 0.0
2018-Feb-21 10:57N 53°36' E 008°31'0 0.0
2018-Feb-21 10:30N 53°36' E 008°31'0 0.0
2018-Feb-21 10:00N 53°36' E 008°31'0 0.0
2018-Feb-21 09:30N 53°36' E 008°31'0 0.0
2018-Feb-21 09:00N 53°36' E 008°31'0 0.0
2018-Feb-21 08:30N 53°36' E 008°31'0 0.0
2018-Feb-21 08:00N 53°36' E 008°31'0 0.0
2018-Feb-21 07:30N 53°36' E 008°31'0 0.0
2018-Feb-21 07:00N 53°36' E 008°31'0 0.0
2018-Feb-21 06:30N 53°36' E 008°31'0 0.0
2018-Feb-21 06:00N 53°36' E 008°31'0 0.0
2018-Feb-21 05:30N 53°36' E 008°31'0 0.0
2018-Feb-21 05:00N 53°36' E 008°31'0 0.0
2018-Feb-21 04:30N 53°36' E 008°31'0 0.0
2018-Feb-21 04:00N 53°36' E 008°31'0 0.0
2018-Feb-21 03:30N 53°36' E 008°31'0 0.0
2018-Feb-21 03:00N 53°36' E 008°31'0 0.0
2018-Feb-21 02:30N 53°36' E 008°31'0 0.0
2018-Feb-21 02:00N 53°36' E 008°31'0 0.0
2018-Feb-21 01:30N 53°36' E 008°31'0 0.0
2018-Feb-21 01:00N 53°36' E 008°31'0 0.0
2018-Feb-21 00:30N 53°36' E 008°31'0 0.0
2018-Feb-21 00:00N 53°36' E 008°31'0 0.0
2018-Feb-20 23:30N 53°36' E 008°31'0 0.0
2018-Feb-20 23:00N 53°36' E 008°31'0 0.0
2018-Feb-20 22:30N 53°36' E 008°31'0 0.0
2018-Feb-20 22:00N 53°36' E 008°31'0 0.0
2018-Feb-20 21:30N 53°36' E 008°31'0 0.0
2018-Feb-20 21:00N 53°36' E 008°31'0 0.0
2018-Feb-20 20:29N 53°36' E 008°31'0 0.0
2018-Feb-20 19:59N 53°36' E 008°31'0 0.0
2018-Feb-20 19:28N 53°36' E 008°31'0 0.0
2018-Feb-20 18:58N 53°36' E 008°31'0 0.0
2018-Feb-20 18:28N 53°36' E 008°31'0 0.0
2018-Feb-20 17:58N 53°36' E 008°31'0 0.0
2018-Feb-20 17:25N 53°36' E 008°31'0 0.0
2018-Feb-20 16:58N 53°36' E 008°31'0 0.0
2018-Feb-20 16:28N 53°36' E 008°31'0 0.0
2018-Feb-20 15:58N 53°36' E 008°31'0 0.0
2018-Feb-20 15:28N 53°36' E 008°31'0 0.0
2018-Feb-20 14:58N 53°36' E 008°31'0 0.0
2018-Feb-20 14:28N 53°36' E 008°31'0 0.0
2018-Feb-20 13:58N 53°36' E 008°31'0 0.1
2018-Feb-20 13:28N 53°36' E 008°31'0 0.1
2018-Feb-20 12:58N 53°36' E 008°31'0 0.0
2018-Feb-20 12:25N 53°36' E 008°31'0 0.0
2018-Feb-20 12:01N 53°36' E 008°31'0 0.0
2018-Feb-20 11:30N 53°36' E 008°31'0 0.0
2018-Feb-20 11:00N 53°36' E 008°31'0 0.0
2018-Feb-20 10:30N 53°36' E 008°31'0 0.0
2018-Feb-20 10:00N 53°36' E 008°31'0 0.0
2018-Feb-20 09:30N 53°36' E 008°31'0 0.0
2018-Feb-20 09:00N 53°36' E 008°31'0 0.0
2018-Feb-20 08:30N 53°36' E 008°31'0 0.0
2018-Feb-20 08:00N 53°36' E 008°31'0 0.0
2018-Feb-20 07:30N 53°36' E 008°31'0 0.0
2018-Feb-20 07:00N 53°36' E 008°31'0 0.0
2018-Feb-20 06:30N 53°36' E 008°31'0 0.0
2018-Feb-20 06:00N 53°36' E 008°31'0 0.0
2018-Feb-20 05:30N 53°36' E 008°31'0 0.0
2018-Feb-20 05:00N 53°36' E 008°31'0 0.0
2018-Feb-20 04:30N 53°36' E 008°31'0 0.0
2018-Feb-20 04:00N 53°36' E 008°31'0 0.1
2018-Feb-20 03:30N 53°36' E 008°31'0 0.1
2018-Feb-20 03:00N 53°36' E 008°31'0 0.0
2018-Feb-20 02:30N 53°36' E 008°31'0 0.0
2018-Feb-20 01:57N 53°36' E 008°31'0 0.0
2018-Feb-20 01:30N 53°36' E 008°31'0 0.0
2018-Feb-20 01:00N 53°36' E 008°31'0 0.0
2018-Feb-20 00:27N 53°36' E 008°31'0 0.0
2018-Feb-20 00:00N 53°36' E 008°31'0 0.0
2018-Feb-19 23:30N 53°36' E 008°31'0 0.0
2018-Feb-19 23:00N 53°36' E 008°31'0 0.0
2018-Feb-19 22:30N 53°36' E 008°31'0 0.0
2018-Feb-19 22:00N 53°36' E 008°31'0 0.0
2018-Feb-19 21:24N 53°36' E 008°31'0 0.0
2018-Feb-19 20:56N 53°36' E 008°31'0 0.0
2018-Feb-19 20:29N 53°36' E 008°31'0 0.0
2018-Feb-19 19:59N 53°36' E 008°31'0 0.0
2018-Feb-19 19:29N 53°36' E 008°31'0 0.0
2018-Feb-19 18:59N 53°36' E 008°31'0 0.0
2018-Feb-19 18:29N 53°36' E 008°31'0 0.0
2018-Feb-19 17:59N 53°36' E 008°31'0 0.0
2018-Feb-19 17:29N 53°36' E 008°31'0 0.0
2018-Feb-19 16:59N 53°36' E 008°31'0 0.0
2018-Feb-19 16:29N 53°36' E 008°31'0 0.0
2018-Feb-19 15:59N 53°36' E 008°31'0 0.0
2018-Feb-19 15:29N 53°36' E 008°31'0 0.0
2018-Feb-19 14:59N 53°36' E 008°31'0 0.0
2018-Feb-19 14:29N 53°36' E 008°31'0 0.0
2018-Feb-19 13:59N 53°36' E 008°31'0 0.0
2018-Feb-19 13:29N 53°36' E 008°31'0 0.0
2018-Feb-19 12:59N 53°36' E 008°31'0 0.0
2018-Feb-19 12:29N 53°36' E 008°31'0 0.0
2018-Feb-19 11:59N 53°36' E 008°31'0 0.0
2018-Feb-19 11:29N 53°36' E 008°31'0 0.0
2018-Feb-19 10:59N 53°36' E 008°31'0 0.0
2018-Feb-19 10:29N 53°36' E 008°31'0 0.0
2018-Feb-19 09:59N 53°36' E 008°31'0 0.0
2018-Feb-19 09:29N 53°36' E 008°31'0 0.0
2018-Feb-19 08:56N 53°36' E 008°31'0 0.0
2018-Feb-19 08:17N 53°36' E 008°31'0 0.1
2018-Feb-19 07:59N 53°36' E 008°31'0 0.0
2018-Feb-19 07:29N 53°36' E 008°31'0 0.0
2018-Feb-19 06:59N 53°36' E 008°31'0 0.0
2018-Feb-19 06:29N 53°36' E 008°31'0 0.0
2018-Feb-19 05:59N 53°36' E 008°31'0 0.0
2018-Feb-19 05:28N 53°36' E 008°31'0 0.0
2018-Feb-19 04:55N 53°36' E 008°31'0 0.0
2018-Feb-19 04:28N 53°36' E 008°31'0 0.0
2018-Feb-19 03:58N 53°36' E 008°31'0 0.0
2018-Feb-19 03:28N 53°36' E 008°31'0 0.0
2018-Feb-19 02:58N 53°36' E 008°31'0 0.0
2018-Feb-19 02:28N 53°36' E 008°31'0 0.0
2018-Feb-19 01:58N 53°36' E 008°31'0 0.0
2018-Feb-19 01:25N 53°36' E 008°31'0 0.0
2018-Feb-19 00:58N 53°36' E 008°31'0 0.0
2018-Feb-19 00:28N 53°36' E 008°31'0 0.0
2018-Feb-18 23:58N 53°36' E 008°31'0 0.0
2018-Feb-18 23:28N 53°36' E 008°31'0 0.0
2018-Feb-18 22:58N 53°36' E 008°31'0 0.0
2018-Feb-18 22:28N 53°36' E 008°31'0 0.0
2018-Feb-18 21:58N 53°36' E 008°31'0 0.0
2018-Feb-18 21:28N 53°36' E 008°31'0 0.0
2018-Feb-18 20:58N 53°36' E 008°31'0 0.0
2018-Feb-18 20:28N 53°36' E 008°31'0 0.0
2018-Feb-18 19:58N 53°36' E 008°31'0 0.0
2018-Feb-18 19:25N 53°36' E 008°31'0 0.0
2018-Feb-18 18:55N 53°36' E 008°31'0 0.0
2018-Feb-18 18:28N 53°36' E 008°31'0 0.0
2018-Feb-18 17:58N 53°36' E 008°31'0 0.0
2018-Feb-18 17:28N 53°36' E 008°31'0 0.0
2018-Feb-18 16:58N 53°36' E 008°31'0 0.0
2018-Feb-18 16:28N 53°36' E 008°31'0 0.0
2018-Feb-18 15:58N 53°36' E 008°31'0 0.0
2018-Feb-18 15:28N 53°36' E 008°31'0 0.0
2018-Feb-18 15:01N 53°36' E 008°31'0 0.0
2018-Feb-18 14:27N 53°36' E 008°31'0 0.0
2018-Feb-18 14:00N 53°36' E 008°31'0 0.0
2018-Feb-18 13:30N 53°36' E 008°31'0 0.0
2018-Feb-18 13:00N 53°36' E 008°31'0 0.0
2018-Feb-18 12:30N 53°36' E 008°31'0 0.0
2018-Feb-18 12:00N 53°36' E 008°31'0 0.0
2018-Feb-18 11:30N 53°36' E 008°31'0 0.0
2018-Feb-18 11:00N 53°36' E 008°31'0 0.0
2018-Feb-18 10:30N 53°36' E 008°31'0 0.0
2018-Feb-18 10:00N 53°36' E 008°31'0 0.0
2018-Feb-18 09:24N 53°36' E 008°31'0 0.1
2018-Feb-18 09:00N 53°36' E 008°31'0 0.1
2018-Feb-18 08:24N 53°36' E 008°31'0 0.0
2018-Feb-18 08:00N 53°36' E 008°31'0 0.0
2018-Feb-18 07:30N 53°36' E 008°31'0 0.0
2018-Feb-18 07:00N 53°36' E 008°31'0 0.0
2018-Feb-18 06:30N 53°36' E 008°31'0 0.0
2018-Feb-18 06:00N 53°36' E 008°31'0 0.0
2018-Feb-18 05:30N 53°36' E 008°31'0 0.0
2018-Feb-18 05:00N 53°36' E 008°31'0 0.0
2018-Feb-18 04:30N 53°36' E 008°31'0 0.0
2018-Feb-18 04:00N 53°36' E 008°31'0 0.0
2018-Feb-18 03:30N 53°36' E 008°31'0 0.0
2018-Feb-18 03:00N 53°36' E 008°31'0 0.0
2018-Feb-18 02:27N 53°36' E 008°31'0 0.0
2018-Feb-18 02:00N 53°36' E 008°31'0 0.0
2018-Feb-18 01:30N 53°36' E 008°31'0 0.0
2018-Feb-18 01:00N 53°36' E 008°31'0 0.0
2018-Feb-18 00:30N 53°36' E 008°31'0 0.0
2018-Feb-18 00:00N 53°36' E 008°31'0 0.0
2018-Feb-17 23:29N 53°36' E 008°31'0 0.1
2018-Feb-17 22:56N 53°36' E 008°31'0 0.1
2018-Feb-17 22:29N 53°36' E 008°31'0 0.0
2018-Feb-17 21:56N 53°36' E 008°31'0 0.0
2018-Feb-17 21:26N 53°36' E 008°31'0 0.0
2018-Feb-17 20:59N 53°36' E 008°31'0 0.0
2018-Feb-17 20:29N 53°36' E 008°31'0 0.0
2018-Feb-17 19:59N 53°36' E 008°31'0 0.0
2018-Feb-17 19:29N 53°36' E 008°31'0 0.0
2018-Feb-17 18:59N 53°36' E 008°31'0 0.0
2018-Feb-17 18:29N 53°36' E 008°31'0 0.0
2018-Feb-17 17:59N 53°36' E 008°31'0 0.0
2018-Feb-17 17:29N 53°36' E 008°31'0 0.0
2018-Feb-17 16:59N 53°36' E 008°31'0 0.0
2018-Feb-17 16:29N 53°36' E 008°31'0 0.0
2018-Feb-17 15:59N 53°36' E 008°31'0 0.0
2018-Feb-17 15:29N 53°36' E 008°31'0 0.0
2018-Feb-17 14:59N 53°36' E 008°31'0 0.0
2018-Feb-17 14:29N 53°36' E 008°31'0 0.0
2018-Feb-17 13:59N 53°36' E 008°31'0 0.0
2018-Feb-17 13:29N 53°36' E 008°31'0 0.0
2018-Feb-17 12:59N 53°36' E 008°31'0 0.0
2018-Feb-17 12:29N 53°36' E 008°31'0 0.0
2018-Feb-17 11:59N 53°36' E 008°31'0 0.0
2018-Feb-17 11:29N 53°36' E 008°31'0 0.0
2018-Feb-17 10:59N 53°36' E 008°31'0 0.0
2018-Feb-17 10:26N 53°36' E 008°31'0 0.0
2018-Feb-17 09:56N 53°36' E 008°31'0 0.0
2018-Feb-17 09:29N 53°36' E 008°31'0 0.0
2018-Feb-17 08:59N 53°36' E 008°31'0 0.0
2018-Feb-17 08:29N 53°36' E 008°31'0 0.0
2018-Feb-17 07:58N 53°36' E 008°31'0 0.0
2018-Feb-17 07:29N 53°36' E 008°31'0 0.0
2018-Feb-17 06:58N 53°36' E 008°31'0 0.0
2018-Feb-17 06:25N 53°36' E 008°31'0 0.0
2018-Feb-17 05:58N 53°36' E 008°31'0 0.0
2018-Feb-17 05:28N 53°36' E 008°31'0 0.1
2018-Feb-17 05:00N 53°36' E 008°30'1 2.9
2018-Feb-17 04:30N 53°37' E 008°29'510.3
2018-Feb-17 04:00N 53°40' E 008°22'510.5
2018-Feb-17 03:30N 53°44' E 008°15'510.3
2018-Feb-17 03:00N 53°47' E 008°09'138 7.4
2018-Feb-16 08:15N 53°05' E 004°28'413.6
2018-Feb-16 07:59N 53°02' E 004°25'713.5
2018-Feb-16 07:28N 52°56' E 004°19'613.6
2018-Feb-16 07:00N 52°51' E 004°14'10115.0
2018-Feb-16 00:16N 51°35' E 002°25'415.4
2018-Feb-16 00:00N 51°32' E 002°21'714.9
2018-Feb-15 23:30N 51°26' E 002°15'714.5
2018-Feb-15 23:00N 51°19' E 002°09'714.4
2018-Feb-15 22:30N 51°14' E 002°02'714.1
2018-Feb-15 22:00N 51°10' E 001°52'612.8
2018-Feb-15 21:30N 51°06' E 001°44'612.2
2018-Feb-15 21:00N 51°01' E 001°38'611.5
2018-Feb-15 20:30N 50°57' E 001°31'510.7
2018-Feb-15 20:00N 50°53' E 001°26'5911.4
2018-Feb-15 14:46N 50°20' E 000°08'312.5
2018-Feb-15 14:30N 50°19' E 000°03'612.6
2018-Feb-15 14:00N 50°17' W 000°06'612.6
2018-Feb-15 13:30N 50°16' W 000°16'1412.6
2018-Feb-15 12:26N 50°12' W 000°36'2213.7
2018-Feb-15 10:52N 50°05' W 001°08'615.1
2018-Feb-15 10:29N 50°04' W 001°17'815.7
2018-Feb-15 10:00N 50°02' W 001°28'816.4
2018-Feb-15 09:31N 49°60' W 001°40'917.0
2018-Feb-15 09:00N 49°58' W 001°53'917.4
2018-Feb-15 08:30N 49°55' W 002°06'3016.8
2018-Feb-15 06:43N 49°48' W 002°51'1515.5
2018-Feb-15 05:45N 49°48' W 003°14'2015.3
2018-Feb-15 04:26N 49°49' W 003°45'1614.9
2018-Feb-15 03:22N 49°51' W 004°10'1014.4
2018-Feb-15 02:39N 49°53' W 004°26'214.2
2018-Feb-15 02:29N 49°53' W 004°29'1313.9
2018-Feb-15 01:33N 49°53' W 004°49'713.7
2018-Feb-15 01:03N 49°53' W 004°60'113.6
2018-Feb-15 01:00N 49°53' W 005°01'713.4
2018-Feb-15 00:29N 49°54' W 005°12'1012.9
2018-Feb-14 23:43N 49°55' W 005°27'412.9
2018-Feb-14 23:24N 49°55' W 005°33'1511.9
2018-Feb-14 22:08N 49°55' W 005°57'212.9
2018-Feb-14 21:59N 49°55' W 005°60'1012.6
2018-Feb-14 21:10N 50°06' W 006°01'1013.2
2018-Feb-14 20:23N 50°16' W 006°02'512.3
2018-Feb-14 20:01N 50°21' W 006°03'813.0
2018-Feb-14 19:25N 50°25' W 006°13'11112.2
2018-Feb-14 10:22N 51°04' W 008°56'410.2
2018-Feb-14 10:00N 51°06' W 009°02'5 9.9
2018-Feb-14 09:30N 51°08' W 009°09'4 8.7
2018-Feb-14 09:00N 51°09' W 009°15'4 8.1
2018-Feb-14 08:30N 51°11' W 009°21'4 7.8
2018-Feb-14 08:00N 51°12' W 009°27'4 7.9
2018-Feb-14 07:30N 51°13' W 009°33'4 7.9
2018-Feb-14 07:00N 51°15' W 009°39'4 7.5
2018-Feb-14 06:30N 51°16' W 009°45'3 7.0
2018-Feb-14 06:00N 51°18' W 009°50'3 6.5
2018-Feb-14 05:30N 51°20' W 009°54'3 6.0
2018-Feb-14 05:00N 51°22' W 009°57'3 5.4
2018-Feb-14 04:30N 51°24' W 010°01'3 5.5
2018-Feb-14 04:00N 51°25' W 010°04'3 5.2
2018-Feb-14 03:30N 51°27' W 010°07'3 5.6
2018-Feb-14 03:00N 51°29' W 010°11'4 7.2
2018-Feb-14 02:30N 51°31' W 010°15'4 7.2
2018-Feb-14 01:54N 51°34' W 010°21'4 7.2
2018-Feb-14 01:23N 51°37' W 010°24'3 7.7
2018-Feb-14 01:00N 51°39' W 010°27'4 7.3
2018-Feb-14 00:29N 51°42' W 010°31'5 7.4
2018-Feb-13 23:52N 51°46' W 010°35'4 7.5
2018-Feb-13 23:22N 51°49' W 010°37'19 8.3
2018-Feb-13 21:04N 52°07' W 010°48'110.0
2018-Feb-13 21:00N 52°08' W 010°48'36 2.7
2018-Feb-13 07:55N 52°16' W 009°52'0 0.0
2018-Feb-13 07:07N 52°16' W 009°52'0 0.0
2018-Feb-13 06:43N 52°16' W 009°52'0 0.0
2018-Feb-13 04:43N 52°16' W 009°52'0 0.0
2018-Feb-13 04:25N 52°16' W 009°52'0 0.0
2018-Feb-13 03:43N 52°16' W 009°52'0 0.0
2018-Feb-13 02:43N 52°16' W 009°52'0 0.0
2018-Feb-13 02:19N 52°16' W 009°52'0 0.0
2018-Feb-13 01:37N 52°16' W 009°52'0 0.0
2018-Feb-13 01:25N 52°16' W 009°52'0 0.0
2018-Feb-13 00:55N 52°16' W 009°52'  

Dump ship's entire track history